الصفحة الرئيسية
METAR-TAF:

METAR-TAF

مطار :

ميسا, أريزونا, الولايات المتحدة

دائرة عرض: 33-19N, خط طول: 111-39W, ارتفاع: 421 متر

مراقبة الطقس الحالي

تاريخ ووقت الإصدار 25 دقيقة قبل الساعة 13:50UTC
ريح 9 عقدة من الشرق/الجنوب الشرقي
درجة الحرارة 27°درجة مئوية
الرطوبة 48%
ضغط 1014 hPa
الرؤية: 16.1 كم
غيوم متفرقة على ارتفاع 8000 قدم
غيوم متفرقة على ارتفاع 10000 قدم

METAR: KIWA 151350Z 11009KT 10SM SCT080 SCT100 27/15 A2995

زمن: 07:15 (14:15 UTC)

توقعات

تاريخ ووقت الإصدار 2ساعات و 55 دقيقة قبل الساعة 11:20UTC
التوقعات صالحة من15 الساعة 12 UTC إلى 16 الساعة 12 UTC
ريح 7 عقدة من الجنوب الشرقي
الرؤية: 10 كم
غيوم قليلة على ارتفاع 8000 قدم
غيوم متفرقة على ارتفاع 15000 قدم
غيوم مفككة على ارتفاع 22000 قدم
من 15 الساعة 2000 UTC
ريح 7 عقدة من الغرب
الرؤية: 10 كم
غيوم قليلة على ارتفاع 8000 قدم
غيوم متفرقة على ارتفاع 24000 قدم
من 16 الساعة 0230 UTC
ريح 8 عقدة من الشرق/الشمال الشرقي
الرؤية: 10 كم
غيوم قليلة على ارتفاع 12000 قدم
غيوم مفككة على ارتفاع 24000 قدم

TAF: KIWA 151120Z 1512/1612 13007KT P6SM FEW080 SCT150 BKN220 FM152000 27007KT P6SM FEW080 SCT240 FM160230 06008KT P6SM FEW120 BKN240

أرصاد الطقس والتوقعات من أكثر من 4000 مطار (تقارير الطقس للمطار METAR والتنبؤ بالطقس بالمطارTAF).

المحطات المتاحة هي النقط الصفراء والحمراء على الخريطة.

حرك المؤشر فوق النقطة لمعرفة اسم المحطة.

ثم انقر لمعرفة أرصاد وتوقعات الطقس.

لتغيير الخارطة: اضغط على الأزرار الخضراء مع رمز الصليب الأسود للتكبير. على الزر الأخضر مع شرطة للتصغير، أو على الأسهم الخضراء للخرائط المجاورة.


METAR-TAF: